sensor_id;sensor_type;location;lat;lon;timestamp;P1;durP1;ratioP1;P2;durP2;ratioP2
78854;SDS011;68206;59.956;30.234;2024-01-27T00:00:20;16.58;;;9.35;;
78854;SDS011;68206;59.956;30.234;2024-01-27T00:02:49;19.05;;;9.13;;
78854;SDS011;68206;59.956;30.234;2024-01-27T00:05:19;18.92;;;9.00;;
78854;SDS011;68206;59.956;30.234;2024-01-27T00:07:47;17.75;;;8.73;;
78854;SDS011;68206;59.956;30.234;2024-01-27T00:10:16;14.43;;;8.30;;
78854;SDS011;68206;59.956;30.234;2024-01-27T00:12:46;18.73;;;8.63;;
78854;SDS011;68206;59.956;30.234;2024-01-27T00:15:14;15.35;;;7.68;;
78854;SDS011;68206;59.956;30.234;2024-01-27T00:17:43;19.08;;;8.38;;
78854;SDS011;68206;59.956;30.234;2024-01-27T00:20:12;16.42;;;8.65;;
78854;SDS011;68206;59.956;30.234;2024-01-27T00:22:40;14.52;;;7.72;;
78854;SDS011;68206;59.956;30.234;2024-01-27T00:25:08;16.05;;;8.30;;
78854;SDS011;68206;59.956;30.234;2024-01-27T00:27:37;17.23;;;7.60;;
78854;SDS011;68206;59.956;30.234;2024-01-27T00:30:07;15.23;;;7.45;;
78854;SDS011;68206;59.956;30.234;2024-01-27T00:32:38;17.58;;;7.70;;
78854;SDS011;68206;59.956;30.234;2024-01-27T00:35:07;15.70;;;7.20;;
78854;SDS011;68206;59.956;30.234;2024-01-27T00:37:36;16.92;;;7.30;;
78854;SDS011;68206;59.956;30.234;2024-01-27T00:40:06;14.48;;;7.10;;
78854;SDS011;68206;59.956;30.234;2024-01-27T00:42:36;12.13;;;6.35;;
78854;SDS011;68206;59.956;30.234;2024-01-27T00:45:05;12.23;;;6.07;;
78854;SDS011;68206;59.956;30.234;2024-01-27T00:47:35;11.90;;;6.70;;
78854;SDS011;68206;59.956;30.234;2024-01-27T00:50:04;13.05;;;6.45;;
78854;SDS011;68206;59.956;30.234;2024-01-27T00:52:35;10.43;;;6.15;;
78854;SDS011;68206;59.956;30.234;2024-01-27T00:55:04;9.30;;;5.65;;
78854;SDS011;68206;59.956;30.234;2024-01-27T00:57:33;12.77;;;6.47;;
78854;SDS011;68206;59.956;30.234;2024-01-27T01:00:01;13.40;;;5.88;;
78854;SDS011;68206;59.956;30.234;2024-01-27T01:02:31;10.65;;;5.10;;
78854;SDS011;68206;59.956;30.234;2024-01-27T01:05:00;11.13;;;5.28;;
78854;SDS011;68206;59.956;30.234;2024-01-27T01:07:30;8.98;;;4.60;;
78854;SDS011;68206;59.956;30.234;2024-01-27T01:09:59;8.93;;;4.65;;
78854;SDS011;68206;59.956;30.234;2024-01-27T01:12:28;9.48;;;4.57;;
78854;SDS011;68206;59.956;30.234;2024-01-27T01:14:56;7.10;;;4.38;;
78854;SDS011;68206;59.956;30.234;2024-01-27T01:17:25;6.22;;;4.15;;
78854;SDS011;68206;59.956;30.234;2024-01-27T01:19:55;7.35;;;4.43;;
78854;SDS011;68206;59.956;30.234;2024-01-27T01:22:23;8.30;;;4.07;;
78854;SDS011;68206;59.956;30.234;2024-01-27T01:24:52;8.18;;;4.57;;
78854;SDS011;68206;59.956;30.234;2024-01-27T01:27:20;8.38;;;4.28;;
78854;SDS011;68206;59.956;30.234;2024-01-27T01:29:48;8.80;;;4.60;;
78854;SDS011;68206;59.956;30.234;2024-01-27T01:32:17;8.05;;;4.25;;
78854;SDS011;68206;59.956;30.234;2024-01-27T01:34:45;7.35;;;4.22;;
78854;SDS011;68206;59.956;30.234;2024-01-27T01:37:15;10.38;;;4.88;;
78854;SDS011;68206;59.956;30.234;2024-01-27T01:39:44;8.10;;;4.28;;
78854;SDS011;68206;59.956;30.234;2024-01-27T01:42:13;9.60;;;4.45;;
78854;SDS011;68206;59.956;30.234;2024-01-27T01:44:41;7.13;;;4.32;;
78854;SDS011;68206;59.956;30.234;2024-01-27T01:47:10;7.28;;;4.55;;
78854;SDS011;68206;59.956;30.234;2024-01-27T01:49:38;8.00;;;4.97;;
78854;SDS011;68206;59.956;30.234;2024-01-27T01:52:07;8.75;;;4.53;;
78854;SDS011;68206;59.956;30.234;2024-01-27T01:54:38;8.02;;;4.38;;
78854;SDS011;68206;59.956;30.234;2024-01-27T01:57:06;10.48;;;4.68;;
78854;SDS011;68206;59.956;30.234;2024-01-27T01:59:35;9.07;;;4.65;;
78854;SDS011;68206;59.956;30.234;2024-01-27T02:02:07;8.65;;;4.20;;
78854;SDS011;68206;59.956;30.234;2024-01-27T02:04:39;7.78;;;4.13;;
78854;SDS011;68206;59.956;30.234;2024-01-27T02:07:09;9.35;;;4.85;;
78854;SDS011;68206;59.956;30.234;2024-01-27T02:09:39;7.90;;;4.07;;
78854;SDS011;68206;59.956;30.234;2024-01-27T02:12:08;6.53;;;4.10;;
78854;SDS011;68206;59.956;30.234;2024-01-27T02:14:36;9.02;;;4.03;;
78854;SDS011;68206;59.956;30.234;2024-01-27T02:17:05;8.48;;;4.22;;
78854;SDS011;68206;59.956;30.234;2024-01-27T02:19:34;7.00;;;3.80;;
78854;SDS011;68206;59.956;30.234;2024-01-27T02:22:03;8.43;;;4.88;;
78854;SDS011;68206;59.956;30.234;2024-01-27T02:24:33;8.60;;;4.85;;
78854;SDS011;68206;59.956;30.234;2024-01-27T02:27:01;8.82;;;4.22;;
78854;SDS011;68206;59.956;30.234;2024-01-27T02:29:31;9.40;;;4.97;;
78854;SDS011;68206;59.956;30.234;2024-01-27T02:31:59;7.68;;;4.80;;
78854;SDS011;68206;59.956;30.234;2024-01-27T02:34:28;8.48;;;4.60;;
78854;SDS011;68206;59.956;30.234;2024-01-27T02:36:56;7.65;;;4.57;;
78854;SDS011;68206;59.956;30.234;2024-01-27T02:39:25;8.45;;;4.68;;
78854;SDS011;68206;59.956;30.234;2024-01-27T02:41:54;9.40;;;4.97;;
78854;SDS011;68206;59.956;30.234;2024-01-27T02:44:23;7.43;;;4.80;;
78854;SDS011;68206;59.956;30.234;2024-01-27T02:46:52;7.88;;;5.22;;
78854;SDS011;68206;59.956;30.234;2024-01-27T02:49:20;10.77;;;5.45;;
78854;SDS011;68206;59.956;30.234;2024-01-27T02:51:49;8.13;;;4.78;;
78854;SDS011;68206;59.956;30.234;2024-01-27T02:54:18;8.50;;;5.35;;
78854;SDS011;68206;59.956;30.234;2024-01-27T02:56:46;8.20;;;4.70;;
78854;SDS011;68206;59.956;30.234;2024-01-27T02:59:17;9.48;;;5.25;;
78854;SDS011;68206;59.956;30.234;2024-01-27T03:01:46;10.63;;;5.28;;
78854;SDS011;68206;59.956;30.234;2024-01-27T03:04:14;7.30;;;4.78;;
78854;SDS011;68206;59.956;30.234;2024-01-27T03:06:43;6.82;;;4.90;;
78854;SDS011;68206;59.956;30.234;2024-01-27T03:09:11;7.30;;;4.47;;
78854;SDS011;68206;59.956;30.234;2024-01-27T03:11:40;7.70;;;4.78;;
78854;SDS011;68206;59.956;30.234;2024-01-27T03:14:08;9.73;;;4.90;;
78854;SDS011;68206;59.956;30.234;2024-01-27T03:16:38;7.78;;;4.50;;
78854;SDS011;68206;59.956;30.234;2024-01-27T03:19:07;9.30;;;5.32;;
78854;SDS011;68206;59.956;30.234;2024-01-27T03:21:35;9.07;;;5.13;;
78854;SDS011;68206;59.956;30.234;2024-01-27T03:24:05;8.05;;;4.70;;
78854;SDS011;68206;59.956;30.234;2024-01-27T03:26:33;10.30;;;5.88;;
78854;SDS011;68206;59.956;30.234;2024-01-27T03:29:02;9.43;;;5.13;;
78854;SDS011;68206;59.956;30.234;2024-01-27T03:31:30;9.88;;;5.60;;
78854;SDS011;68206;59.956;30.234;2024-01-27T03:34:01;8.23;;;4.30;;
78854;SDS011;68206;59.956;30.234;2024-01-27T03:36:30;7.15;;;4.85;;
78854;SDS011;68206;59.956;30.234;2024-01-27T03:38:59;9.32;;;5.30;;
78854;SDS011;68206;59.956;30.234;2024-01-27T03:41:28;8.80;;;4.65;;
78854;SDS011;68206;59.956;30.234;2024-01-27T03:43:56;8.73;;;4.50;;
78854;SDS011;68206;59.956;30.234;2024-01-27T03:46:24;6.70;;;4.07;;
78854;SDS011;68206;59.956;30.234;2024-01-27T03:48:53;8.73;;;4.82;;
78854;SDS011;68206;59.956;30.234;2024-01-27T03:51:24;9.00;;;5.00;;
78854;SDS011;68206;59.956;30.234;2024-01-27T03:53:53;9.25;;;5.07;;
78854;SDS011;68206;59.956;30.234;2024-01-27T03:56:21;10.00;;;5.93;;
78854;SDS011;68206;59.956;30.234;2024-01-27T03:58:50;9.90;;;5.28;;
78854;SDS011;68206;59.956;30.234;2024-01-27T04:01:18;10.77;;;6.10;;
78854;SDS011;68206;59.956;30.234;2024-01-27T04:03:47;8.20;;;5.70;;
78854;SDS011;68206;59.956;30.234;2024-01-27T04:06:15;9.43;;;5.70;;
78854;SDS011;68206;59.956;30.234;2024-01-27T04:08:45;12.20;;;6.07;;
78854;SDS011;68206;59.956;30.234;2024-01-27T04:11:20;8.95;;;5.68;;
78854;SDS011;68206;59.956;30.234;2024-01-27T04:13:50;10.85;;;6.35;;
78854;SDS011;68206;59.956;30.234;2024-01-27T04:16:19;11.55;;;6.38;;
78854;SDS011;68206;59.956;30.234;2024-01-27T04:18:47;11.32;;;5.75;;
78854;SDS011;68206;59.956;30.234;2024-01-27T04:21:16;11.85;;;6.47;;
78854;SDS011;68206;59.956;30.234;2024-01-27T04:23:46;13.15;;;7.40;;
78854;SDS011;68206;59.956;30.234;2024-01-27T04:26:15;11.07;;;6.53;;
78854;SDS011;68206;59.956;30.234;2024-01-27T04:28:43;11.82;;;7.03;;
78854;SDS011;68206;59.956;30.234;2024-01-27T04:31:12;12.73;;;7.80;;
78854;SDS011;68206;59.956;30.234;2024-01-27T04:33:40;13.15;;;8.60;;
78854;SDS011;68206;59.956;30.234;2024-01-27T04:36:09;14.77;;;8.52;;
78854;SDS011;68206;59.956;30.234;2024-01-27T04:38:37;14.80;;;8.30;;
78854;SDS011;68206;59.956;30.234;2024-01-27T04:41:07;14.48;;;8.80;;
78854;SDS011;68206;59.956;30.234;2024-01-27T04:43:36;14.45;;;8.07;;
78854;SDS011;68206;59.956;30.234;2024-01-27T04:46:04;13.35;;;7.70;;
78854;SDS011;68206;59.956;30.234;2024-01-27T04:48:34;12.95;;;7.38;;
78854;SDS011;68206;59.956;30.234;2024-01-27T04:51:03;11.93;;;7.82;;
78854;SDS011;68206;59.956;30.234;2024-01-27T04:53:31;11.38;;;7.32;;
78854;SDS011;68206;59.956;30.234;2024-01-27T04:56:00;12.43;;;7.43;;
78854;SDS011;68206;59.956;30.234;2024-01-27T04:58:29;14.60;;;7.70;;
78854;SDS011;68206;59.956;30.234;2024-01-27T05:00:58;14.48;;;7.45;;
78854;SDS011;68206;59.956;30.234;2024-01-27T05:03:26;10.98;;;6.65;;
78854;SDS011;68206;59.956;30.234;2024-01-27T05:05:55;10.73;;;6.88;;
78854;SDS011;68206;59.956;30.234;2024-01-27T05:08:23;11.00;;;6.72;;
78854;SDS011;68206;59.956;30.234;2024-01-27T05:10:52;11.82;;;6.68;;
78854;SDS011;68206;59.956;30.234;2024-01-27T05:13:24;12.18;;;6.40;;
78854;SDS011;68206;59.956;30.234;2024-01-27T05:15:54;11.05;;;6.45;;
78854;SDS011;68206;59.956;30.234;2024-01-27T05:18:23;12.23;;;6.35;;
78854;SDS011;68206;59.956;30.234;2024-01-27T05:20:51;13.60;;;6.82;;
78854;SDS011;68206;59.956;30.234;2024-01-27T05:23:20;11.07;;;6.57;;
78854;SDS011;68206;59.956;30.234;2024-01-27T05:25:48;9.85;;;6.07;;
78854;SDS011;68206;59.956;30.234;2024-01-27T05:28:17;13.40;;;6.70;;
78854;SDS011;68206;59.956;30.234;2024-01-27T05:30:45;11.48;;;6.43;;
78854;SDS011;68206;59.956;30.234;2024-01-27T05:33:15;11.30;;;6.50;;
78854;SDS011;68206;59.956;30.234;2024-01-27T05:35:44;9.70;;;6.22;;
78854;SDS011;68206;59.956;30.234;2024-01-27T05:38:12;12.52;;;6.40;;
78854;SDS011;68206;59.956;30.234;2024-01-27T05:40:41;11.10;;;6.43;;
78854;SDS011;68206;59.956;30.234;2024-01-27T05:43:09;12.38;;;7.28;;
78854;SDS011;68206;59.956;30.234;2024-01-27T05:45:37;11.77;;;6.22;;
78854;SDS011;68206;59.956;30.234;2024-01-27T05:48:06;10.93;;;5.97;;
78854;SDS011;68206;59.956;30.234;2024-01-27T05:50:37;10.23;;;6.30;;
78854;SDS011;68206;59.956;30.234;2024-01-27T05:53:08;11.15;;;6.07;;
78854;SDS011;68206;59.956;30.234;2024-01-27T05:55:36;10.82;;;6.22;;
78854;SDS011;68206;59.956;30.234;2024-01-27T05:58:05;10.48;;;5.88;;
78854;SDS011;68206;59.956;30.234;2024-01-27T06:00:33;10.88;;;5.55;;
78854;SDS011;68206;59.956;30.234;2024-01-27T06:03:02;8.30;;;4.80;;
78854;SDS011;68206;59.956;30.234;2024-01-27T06:05:30;11.25;;;6.22;;
78854;SDS011;68206;59.956;30.234;2024-01-27T06:08:00;11.77;;;5.82;;
78854;SDS011;68206;59.956;30.234;2024-01-27T06:10:29;11.40;;;5.88;;
78854;SDS011;68206;59.956;30.234;2024-01-27T06:12:57;10.07;;;5.60;;
78854;SDS011;68206;59.956;30.234;2024-01-27T06:15:26;14.20;;;6.05;;
78854;SDS011;68206;59.956;30.234;2024-01-27T06:17:55;9.88;;;5.45;;
78854;SDS011;68206;59.956;30.234;2024-01-27T06:20:24;13.23;;;6.32;;
78854;SDS011;68206;59.956;30.234;2024-01-27T06:22:52;12.15;;;5.22;;
78854;SDS011;68206;59.956;30.234;2024-01-27T06:25:22;10.32;;;5.30;;
78854;SDS011;68206;59.956;30.234;2024-01-27T06:27:51;9.35;;;5.30;;
78854;SDS011;68206;59.956;30.234;2024-01-27T06:30:19;12.43;;;5.43;;
78854;SDS011;68206;59.956;30.234;2024-01-27T06:32:48;9.43;;;5.25;;
78854;SDS011;68206;59.956;30.234;2024-01-27T06:35:17;8.82;;;4.47;;
78854;SDS011;68206;59.956;30.234;2024-01-27T06:37:45;11.00;;;5.05;;
78854;SDS011;68206;59.956;30.234;2024-01-27T06:40:14;8.82;;;4.97;;
78854;SDS011;68206;59.956;30.234;2024-01-27T06:42:44;8.77;;;5.05;;
78854;SDS011;68206;59.956;30.234;2024-01-27T06:45:12;9.43;;;4.85;;
78854;SDS011;68206;59.956;30.234;2024-01-27T06:47:41;12.25;;;6.28;;
78854;SDS011;68206;59.956;30.234;2024-01-27T06:50:10;9.68;;;5.15;;
78854;SDS011;68206;59.956;30.234;2024-01-27T06:52:40;8.63;;;4.97;;
78854;SDS011;68206;59.956;30.234;2024-01-27T06:55:09;8.90;;;4.70;;
78854;SDS011;68206;59.956;30.234;2024-01-27T06:57:38;10.45;;;5.50;;
78854;SDS011;68206;59.956;30.234;2024-01-27T07:00:09;9.43;;;5.50;;
78854;SDS011;68206;59.956;30.234;2024-01-27T07:02:41;10.02;;;5.18;;
78854;SDS011;68206;59.956;30.234;2024-01-27T07:05:10;10.93;;;6.28;;
78854;SDS011;68206;59.956;30.234;2024-01-27T07:07:41;10.95;;;5.60;;
78854;SDS011;68206;59.956;30.234;2024-01-27T07:10:10;9.07;;;4.75;;
78854;SDS011;68206;59.956;30.234;2024-01-27T07:12:38;8.43;;;5.05;;
78854;SDS011;68206;59.956;30.234;2024-01-27T07:15:09;8.20;;;4.28;;
78854;SDS011;68206;59.956;30.234;2024-01-27T07:17:37;10.10;;;5.10;;
78854;SDS011;68206;59.956;30.234;2024-01-27T07:20:07;8.98;;;4.93;;
78854;SDS011;68206;59.956;30.234;2024-01-27T07:22:36;10.35;;;5.18;;
78854;SDS011;68206;59.956;30.234;2024-01-27T07:25:05;9.18;;;4.70;;
78854;SDS011;68206;59.956;30.234;2024-01-27T07:27:36;9.20;;;5.18;;
78854;SDS011;68206;59.956;30.234;2024-01-27T07:30:06;9.40;;;5.00;;
78854;SDS011;68206;59.956;30.234;2024-01-27T07:32:37;8.73;;;4.93;;
78854;SDS011;68206;59.956;30.234;2024-01-27T07:35:07;10.68;;;5.25;;
78854;SDS011;68206;59.956;30.234;2024-01-27T07:37:36;10.13;;;4.75;;
78854;SDS011;68206;59.956;30.234;2024-01-27T07:40:05;8.68;;;5.28;;
78854;SDS011;68206;59.956;30.234;2024-01-27T07:42:36;9.35;;;5.10;;
78854;SDS011;68206;59.956;30.234;2024-01-27T07:45:08;10.50;;;5.40;;
78854;SDS011;68206;59.956;30.234;2024-01-27T07:47:46;8.93;;;4.97;;
78854;SDS011;68206;59.956;30.234;2024-01-27T07:50:17;9.90;;;4.63;;
78854;SDS011;68206;59.956;30.234;2024-01-27T07:52:45;8.52;;;5.15;;
78854;SDS011;68206;59.956;30.234;2024-01-27T07:55:14;9.95;;;5.97;;
78854;SDS011;68206;59.956;30.234;2024-01-27T07:57:44;10.50;;;5.15;;
78854;SDS011;68206;59.956;30.234;2024-01-27T08:00:12;9.73;;;4.75;;
78854;SDS011;68206;59.956;30.234;2024-01-27T08:02:42;9.57;;;5.15;;
78854;SDS011;68206;59.956;30.234;2024-01-27T08:05:13;11.73;;;4.95;;
78854;SDS011;68206;59.956;30.234;2024-01-27T08:07:45;8.95;;;4.45;;
78854;SDS011;68206;59.956;30.234;2024-01-27T08:10:14;10.60;;;5.05;;
78854;SDS011;68206;59.956;30.234;2024-01-27T08:12:44;10.45;;;5.32;;
78854;SDS011;68206;59.956;30.234;2024-01-27T08:15:12;10.45;;;5.57;;
78854;SDS011;68206;59.956;30.234;2024-01-27T08:17:41;9.07;;;5.10;;
78854;SDS011;68206;59.956;30.234;2024-01-27T08:20:10;9.68;;;4.95;;
78854;SDS011;68206;59.956;30.234;2024-01-27T08:22:41;9.73;;;5.20;;
78854;SDS011;68206;59.956;30.234;2024-01-27T08:25:09;10.88;;;5.30;;
78854;SDS011;68206;59.956;30.234;2024-01-27T08:27:38;11.32;;;5.20;;
78854;SDS011;68206;59.956;30.234;2024-01-27T08:30:07;9.75;;;4.82;;
78854;SDS011;68206;59.956;30.234;2024-01-27T08:32:37;11.13;;;5.10;;
78854;SDS011;68206;59.956;30.234;2024-01-27T08:35:05;9.52;;;4.85;;
78854;SDS011;68206;59.956;30.234;2024-01-27T08:37:37;12.20;;;5.50;;
78854;SDS011;68206;59.956;30.234;2024-01-27T08:40:08;10.10;;;5.25;;
78854;SDS011;68206;59.956;30.234;2024-01-27T08:42:36;8.93;;;5.35;;
78854;SDS011;68206;59.956;30.234;2024-01-27T08:45:05;11.15;;;5.70;;
78854;SDS011;68206;59.956;30.234;2024-01-27T08:47:35;10.77;;;5.80;;
78854;SDS011;68206;59.956;30.234;2024-01-27T08:50:03;9.15;;;5.63;;
78854;SDS011;68206;59.956;30.234;2024-01-27T08:52:33;9.18;;;5.35;;
78854;SDS011;68206;59.956;30.234;2024-01-27T08:55:05;11.07;;;5.60;;
78854;SDS011;68206;59.956;30.234;2024-01-27T08:57:36;9.40;;;5.85;;
78854;SDS011;68206;59.956;30.234;2024-01-27T09:00:05;9.48;;;5.35;;
78854;SDS011;68206;59.956;30.234;2024-01-27T09:02:34;8.45;;;5.25;;
78854;SDS011;68206;59.956;30.234;2024-01-27T09:05:03;7.10;;;5.07;;
78854;SDS011;68206;59.956;30.234;2024-01-27T09:07:33;9.48;;;5.55;;
78854;SDS011;68206;59.956;30.234;2024-01-27T09:10:02;7.88;;;5.05;;
78854;SDS011;68206;59.956;30.234;2024-01-27T09:12:32;8.90;;;4.90;;
78854;SDS011;68206;59.956;30.234;2024-01-27T09:15:01;7.68;;;4.63;;
78854;SDS011;68206;59.956;30.234;2024-01-27T09:17:30;8.68;;;4.93;;
78854;SDS011;68206;59.956;30.234;2024-01-27T09:19:59;8.68;;;4.85;;
78854;SDS011;68206;59.956;30.234;2024-01-27T09:22:29;8.75;;;5.07;;
78854;SDS011;68206;59.956;30.234;2024-01-27T09:24:57;7.60;;;4.55;;
78854;SDS011;68206;59.956;30.234;2024-01-27T09:27:26;7.38;;;4.93;;
78854;SDS011;68206;59.956;30.234;2024-01-27T09:29:56;7.65;;;4.63;;
78854;SDS011;68206;59.956;30.234;2024-01-27T09:32:32;8.85;;;4.85;;
78854;SDS011;68206;59.956;30.234;2024-01-27T09:35:04;7.22;;;4.28;;
78854;SDS011;68206;59.956;30.234;2024-01-27T09:37:45;6.20;;;3.95;;
78854;SDS011;68206;59.956;30.234;2024-01-27T09:40:31;8.77;;;4.40;;
78854;SDS011;68206;59.956;30.234;2024-01-27T09:43:04;8.55;;;4.55;;
78854;SDS011;68206;59.956;30.234;2024-01-27T09:46:06;7.60;;;4.13;;
78854;SDS011;68206;59.956;30.234;2024-01-27T09:48:48;7.25;;;4.40;;
78854;SDS011;68206;59.956;30.234;2024-01-27T09:51:27;10.50;;;4.55;;
78854;SDS011;68206;59.956;30.234;2024-01-27T09:54:09;6.95;;;4.03;;
78854;SDS011;68206;59.956;30.234;2024-01-27T09:56:39;7.32;;;4.10;;
78854;SDS011;68206;59.956;30.234;2024-01-27T09:59:07;7.97;;;4.15;;
78854;SDS011;68206;59.956;30.234;2024-01-27T10:01:38;7.68;;;4.22;;
78854;SDS011;68206;59.956;30.234;2024-01-27T10:04:07;6.53;;;3.60;;
78854;SDS011;68206;59.956;30.234;2024-01-27T10:06:36;5.53;;;3.78;;
78854;SDS011;68206;59.956;30.234;2024-01-27T10:09:06;7.78;;;4.75;;
78854;SDS011;68206;59.956;30.234;2024-01-27T10:11:37;6.28;;;3.63;;
78854;SDS011;68206;59.956;30.234;2024-01-27T10:14:08;8.52;;;4.45;;
78854;SDS011;68206;59.956;30.234;2024-01-27T10:16:41;7.80;;;4.13;;
78854;SDS011;68206;59.956;30.234;2024-01-27T10:19:12;7.28;;;4.05;;
78854;SDS011;68206;59.956;30.234;2024-01-27T10:21:44;5.57;;;3.63;;
78854;SDS011;68206;59.956;30.234;2024-01-27T10:24:13;7.38;;;4.07;;
78854;SDS011;68206;59.956;30.234;2024-01-27T10:26:42;6.72;;;4.03;;
78854;SDS011;68206;59.956;30.234;2024-01-27T10:29:10;6.90;;;4.28;;
78854;SDS011;68206;59.956;30.234;2024-01-27T10:31:41;8.13;;;4.53;;
78854;SDS011;68206;59.956;30.234;2024-01-27T10:34:10;4.85;;;3.40;;
78854;SDS011;68206;59.956;30.234;2024-01-27T10:36:43;7.10;;;3.80;;
78854;SDS011;68206;59.956;30.234;2024-01-27T10:39:16;8.13;;;4.35;;
78854;SDS011;68206;59.956;30.234;2024-01-27T10:41:45;6.82;;;3.67;;
78854;SDS011;68206;59.956;30.234;2024-01-27T10:44:15;7.45;;;4.32;;
78854;SDS011;68206;59.956;30.234;2024-01-27T10:46:49;9.15;;;4.13;;
78854;SDS011;68206;59.956;30.234;2024-01-27T10:49:19;7.57;;;4.43;;
78854;SDS011;68206;59.956;30.234;2024-01-27T10:51:51;7.93;;;4.00;;
78854;SDS011;68206;59.956;30.234;2024-01-27T10:54:23;6.05;;;3.92;;
78854;SDS011;68206;59.956;30.234;2024-01-27T10:56:54;7.47;;;4.03;;
78854;SDS011;68206;59.956;30.234;2024-01-27T10:59:26;7.18;;;4.13;;
78854;SDS011;68206;59.956;30.234;2024-01-27T11:01:57;7.05;;;4.22;;
78854;SDS011;68206;59.956;30.234;2024-01-27T11:04:28;8.95;;;4.38;;
78854;SDS011;68206;59.956;30.234;2024-01-27T11:07:01;9.18;;;3.83;;
78854;SDS011;68206;59.956;30.234;2024-01-27T11:09:32;6.45;;;3.75;;
78854;SDS011;68206;59.956;30.234;2024-01-27T11:12:03;6.78;;;3.78;;
78854;SDS011;68206;59.956;30.234;2024-01-27T11:14:34;6.95;;;4.47;;
78854;SDS011;68206;59.956;30.234;2024-01-27T11:17:09;8.00;;;4.53;;
78854;SDS011;68206;59.956;30.234;2024-01-27T11:19:39;8.98;;;4.55;;
78854;SDS011;68206;59.956;30.234;2024-01-27T11:22:07;8.55;;;4.18;;
78854;SDS011;68206;59.956;30.234;2024-01-27T11:24:35;9.77;;;4.93;;
78854;SDS011;68206;59.956;30.234;2024-01-27T11:27:04;7.13;;;4.15;;
78854;SDS011;68206;59.956;30.234;2024-01-27T11:29:34;8.38;;;5.15;;
78854;SDS011;68206;59.956;30.234;2024-01-27T11:32:03;9.13;;;4.72;;
78854;SDS011;68206;59.956;30.234;2024-01-27T11:34:43;9.05;;;4.28;;
78854;SDS011;68206;59.956;30.234;2024-01-27T11:37:14;9.43;;;4.47;;
78854;SDS011;68206;59.956;30.234;2024-01-27T11:39:44;6.95;;;4.20;;
78854;SDS011;68206;59.956;30.234;2024-01-27T11:42:13;7.45;;;3.95;;
78854;SDS011;68206;59.956;30.234;2024-01-27T11:44:43;10.23;;;4.53;;
78854;SDS011;68206;59.956;30.234;2024-01-27T11:47:16;8.45;;;4.15;;
78854;SDS011;68206;59.956;30.234;2024-01-27T11:49:52;6.75;;;4.07;;
78854;SDS011;68206;59.956;30.234;2024-01-27T11:52:47;7.55;;;4.43;;
78854;SDS011;68206;59.956;30.234;2024-01-27T11:55:53;9.68;;;4.32;;
78854;SDS011;68206;59.956;30.234;2024-01-27T11:58:28;5.75;;;3.85;;
78854;SDS011;68206;59.956;30.234;2024-01-27T12:01:00;7.10;;;4.32;;
78854;SDS011;68206;59.956;30.234;2024-01-27T12:03:31;7.90;;;4.50;;
78854;SDS011;68206;59.956;30.234;2024-01-27T12:06:03;8.90;;;4.55;;
78854;SDS011;68206;59.956;30.234;2024-01-27T12:08:41;10.50;;;4.40;;
78854;SDS011;68206;59.956;30.234;2024-01-27T12:11:17;6.68;;;4.22;;
78854;SDS011;68206;59.956;30.234;2024-01-27T12:13:51;6.28;;;3.83;;
78854;SDS011;68206;59.956;30.234;2024-01-27T12:16:20;6.18;;;3.47;;
78854;SDS011;68206;59.956;30.234;2024-01-27T12:18:51;5.72;;;3.50;;
78854;SDS011;68206;59.956;30.234;2024-01-27T12:21:23;6.38;;;3.75;;
78854;SDS011;68206;59.956;30.234;2024-01-27T12:23:52;5.22;;;3.60;;
78854;SDS011;68206;59.956;30.234;2024-01-27T12:26:22;8.30;;;3.03;;
78854;SDS011;68206;59.956;30.234;2024-01-27T12:28:55;5.97;;;3.47;;
78854;SDS011;68206;59.956;30.234;2024-01-27T12:31:25;7.72;;;3.15;;
78854;SDS011;68206;59.956;30.234;2024-01-27T12:33:56;5.55;;;3.25;;
78854;SDS011;68206;59.956;30.234;2024-01-27T12:36:28;5.63;;;3.53;;
78854;SDS011;68206;59.956;30.234;2024-01-27T12:38:58;5.40;;;3.13;;
78854;SDS011;68206;59.956;30.234;2024-01-27T12:41:28;5.90;;;3.17;;
78854;SDS011;68206;59.956;30.234;2024-01-27T12:43:57;6.10;;;3.28;;
78854;SDS011;68206;59.956;30.234;2024-01-27T12:46:26;5.85;;;3.00;;
78854;SDS011;68206;59.956;30.234;2024-01-27T12:48:55;5.38;;;3.05;;
78854;SDS011;68206;59.956;30.234;2024-01-27T12:51:24;5.40;;;3.30;;
78854;SDS011;68206;59.956;30.234;2024-01-27T12:53:54;4.32;;;2.80;;
78854;SDS011;68206;59.956;30.234;2024-01-27T12:56:23;7.50;;;2.90;;
78854;SDS011;68206;59.956;30.234;2024-01-27T12:58:51;5.53;;;3.15;;
78854;SDS011;68206;59.956;30.234;2024-01-27T13:01:22;7.53;;;3.22;;
78854;SDS011;68206;59.956;30.234;2024-01-27T13:03:51;7.13;;;3.30;;
78854;SDS011;68206;59.956;30.234;2024-01-27T13:06:20;7.18;;;3.67;;
78854;SDS011;68206;59.956;30.234;2024-01-27T13:08:50;4.78;;;3.08;;
78854;SDS011;68206;59.956;30.234;2024-01-27T13:11:21;4.57;;;3.10;;
78854;SDS011;68206;59.956;30.234;2024-01-27T13:13:49;5.40;;;3.25;;
78854;SDS011;68206;59.956;30.234;2024-01-27T13:16:18;5.40;;;2.90;;
78854;SDS011;68206;59.956;30.234;2024-01-27T13:18:47;5.05;;;3.55;;
78854;SDS011;68206;59.956;30.234;2024-01-27T13:21:16;6.38;;;3.55;;
78854;SDS011;68206;59.956;30.234;2024-01-27T13:23:44;7.40;;;3.42;;
78854;SDS011;68206;59.956;30.234;2024-01-27T13:26:13;5.35;;;3.17;;
78854;SDS011;68206;59.956;30.234;2024-01-27T13:28:46;4.93;;;3.20;;
78854;SDS011;68206;59.956;30.234;2024-01-27T13:31:16;7.65;;;3.15;;
78854;SDS011;68206;59.956;30.234;2024-01-27T13:33:46;6.43;;;3.35;;
78854;SDS011;68206;59.956;30.234;2024-01-27T13:36:15;6.28;;;3.40;;
78854;SDS011;68206;59.956;30.234;2024-01-27T13:38:45;5.78;;;3.28;;
78854;SDS011;68206;59.956;30.234;2024-01-27T13:41:13;5.38;;;3.13;;
78854;SDS011;68206;59.956;30.234;2024-01-27T13:43:42;4.97;;;3.33;;
78854;SDS011;68206;59.956;30.234;2024-01-27T13:46:13;5.28;;;3.28;;
78854;SDS011;68206;59.956;30.234;2024-01-27T13:48:41;5.47;;;3.30;;
78854;SDS011;68206;59.956;30.234;2024-01-27T13:51:10;6.30;;;3.83;;
78854;SDS011;68206;59.956;30.234;2024-01-27T13:53:38;6.82;;;3.42;;
78854;SDS011;68206;59.956;30.234;2024-01-27T13:56:13;5.63;;;3.20;;
78854;SDS011;68206;59.956;30.234;2024-01-27T13:58:42;5.35;;;3.15;;
78854;SDS011;68206;59.956;30.234;2024-01-27T14:01:12;5.30;;;3.40;;
78854;SDS011;68206;59.956;30.234;2024-01-27T14:03:41;5.63;;;3.22;;
78854;SDS011;68206;59.956;30.234;2024-01-27T14:06:10;8.38;;;3.03;;
78854;SDS011;68206;59.956;30.234;2024-01-27T14:08:40;5.47;;;3.03;;
78854;SDS011;68206;59.956;30.234;2024-01-27T14:11:09;5.40;;;3.08;;
78854;SDS011;68206;59.956;30.234;2024-01-27T14:13:37;5.72;;;2.97;;
78854;SDS011;68206;59.956;30.234;2024-01-27T14:16:06;6.22;;;3.38;;
78854;SDS011;68206;59.956;30.234;2024-01-27T14:18:36;5.43;;;2.90;;
78854;SDS011;68206;59.956;30.234;2024-01-27T14:21:05;7.65;;;3.15;;
78854;SDS011;68206;59.956;30.234;2024-01-27T14:23:33;4.82;;;3.50;;
78854;SDS011;68206;59.956;30.234;2024-01-27T14:26:02;4.32;;;2.63;;
78854;SDS011;68206;59.956;30.234;2024-01-27T14:28:30;3.85;;;2.60;;
78854;SDS011;68206;59.956;30.234;2024-01-27T14:30:59;4.47;;;3.15;;
78854;SDS011;68206;59.956;30.234;2024-01-27T14:33:31;6.25;;;3.00;;
78854;SDS011;68206;59.956;30.234;2024-01-27T14:36:01;4.43;;;2.75;;
78854;SDS011;68206;59.956;30.234;2024-01-27T14:38:33;5.15;;;2.97;;
78854;SDS011;68206;59.956;30.234;2024-01-27T14:41:02;4.47;;;2.75;;
78854;SDS011;68206;59.956;30.234;2024-01-27T14:43:31;6.07;;;3.03;;
78854;SDS011;68206;59.956;30.234;2024-01-27T14:46:00;6.22;;;2.92;;